Time;durP1;ratioP1;P1;durP2;ratioP2;P2;SDS_P1;SDS_P2;PMS_P1;PMS_P2;Temp;Humidity;BMP_temperature;BMP_pressure;BME280_temperature;BME280_humidity;BME280_pressure;Samples;Min_cycle;Max_cycle;Signal;HPM_P1;HPM_P2
2023/02/22 00:00:22;;;;;;;8.88;6.18;;;;;;;4.08;91.72;94706.78;5059305;28;20097;-75
2023/02/22 00:02:52;;;;;;;8.75;5.72;;;;;;;3.55;93.42;94716.66;5074612;28;20020;-75
2023/02/22 00:05:23;;;;;;;;;;;;;;;3.00;96.46;94723.19;5065282;28;20142;-75
2023/02/22 00:07:49;;;;;;;9.55;5.13;;;;;;;2.74;97.99;94724.56;5072893;28;19961;-75
2023/02/22 00:10:19;;;;;;;9.25;5.95;;;;;;;3.24;97.65;94712.59;5076137;28;20506;-75
2023/02/22 00:12:48;;;;;;;11.80;6.07;;;;;;;3.41;96.37;94714.50;5044948;28;20028;-76
2023/02/22 00:15:15;;;;;;;7.55;6.50;;;;;;;3.42;96.02;94711.00;5057065;28;20024;-75
2023/02/22 00:17:40;;;;;;;9.38;5.95;;;;;;;3.24;96.11;94717.72;5058087;28;20496;-74
2023/02/22 00:20:07;;;;;;;7.05;5.45;;;;;;;3.56;95.44;94710.63;5053317;28;20020;-76
2023/02/22 00:22:33;;;;;;;8.60;5.57;;;;;;;3.70;94.83;94715.31;5027745;28;20040;-75
2023/02/22 00:24:58;;;;;;;7.15;5.82;;;;;;;3.50;94.96;94706.03;5051692;28;20431;-75
2023/02/22 00:27:24;;;;;;;9.27;6.40;;;;;;;3.36;96.16;94704.66;5056737;28;20090;-75
2023/02/22 00:29:49;;;;;;;9.57;5.72;;;;;;;3.08;97.48;94706.22;5057169;28;20039;-75
2023/02/22 00:32:15;;;;;;;11.85;6.57;;;;;;;3.08;97.97;94698.56;5056993;28;20082;-76
2023/02/22 00:34:42;;;;;;;6.70;6.00;;;;;;;3.22;97.31;94697.38;5070586;28;20760;-74
2023/02/22 00:37:09;;;;;;;7.45;5.53;;;;;;;3.18;96.94;94706.25;5057832;28;20063;-75
2023/02/22 00:39:35;;;;;;;8.32;5.63;;;;;;;3.23;96.89;94704.13;5054709;28;20120;-75
2023/02/22 00:42:00;;;;;;;11.55;6.18;;;;;;;3.17;97.18;94702.09;5050984;28;20561;-75
2023/02/22 00:44:26;;;;;;;10.27;5.68;;;;;;;3.08;97.76;94695.22;5056515;28;20032;-75
2023/02/22 00:46:51;;;;;;;10.82;6.50;;;;;;;3.10;97.78;94701.81;5051935;28;20033;-75
2023/02/22 00:49:17;;;;;;;7.45;5.50;;;;;;;3.09;98.42;94702.72;5036289;28;20764;-75
2023/02/22 00:51:43;;;;;;;11.90;7.40;;;;;;;2.83;99.31;94693.91;5037168;28;20037;-75
2023/02/22 00:54:09;;;;;;;10.63;6.30;;;;;;;2.48;100.00;94696.91;5034580;28;20046;-75
2023/02/22 00:56:36;;;;;;;9.27;6.13;;;;;;;2.42;100.00;94699.97;5057276;28;20537;-75
2023/02/22 00:59:02;;;;;;;9.98;6.22;;;;;;;2.53;100.00;94702.44;5040226;28;20182;-75
2023/02/22 01:01:28;;;;;;;10.27;5.82;;;;;;;2.61;100.00;94691.56;5055105;28;20020;-74
2023/02/22 01:03:53;;;;;;;9.85;6.20;;;;;;;2.63;100.00;94698.16;5057414;28;20035;-75
2023/02/22 01:06:19;;;;;;;10.50;6.63;;;;;;;2.58;100.00;94687.53;5056006;28;20028;-75
2023/02/22 01:08:46;;;;;;;13.80;5.80;;;;;;;2.38;100.00;94680.72;5057096;28;20036;-75
2023/02/22 01:11:12;;;;;;;7.93;5.82;;;;;;;2.43;100.00;94688.81;5056407;28;20560;-75
2023/02/22 01:13:38;;;;;;;10.73;6.68;;;;;;;2.49;100.00;94680.63;5056816;28;20036;-75
2023/02/22 01:16:07;;;;;;;10.57;6.53;;;;;;;2.47;100.00;94674.03;5055922;28;20029;-75
2023/02/22 01:18:34;;;;;;;10.30;6.43;;;;;;;2.63;100.00;94682.81;5073220;28;20028;-75
2023/02/22 01:21:00;;;;;;;11.40;5.85;;;;;;;2.55;100.00;94669.91;5056894;28;20103;-75
2023/02/22 01:23:26;;;;;;;9.43;5.70;;;;;;;2.49;100.00;94683.19;5056202;28;20021;-75
2023/02/22 01:25:51;;;;;;;9.27;6.18;;;;;;;2.52;100.00;94672.72;5053650;28;20518;-75
2023/02/22 01:28:17;;;;;;;6.13;5.22;;;;;;;2.72;100.00;94667.66;5024995;28;20025;-75
2023/02/22 01:30:42;;;;;;;9.18;5.70;;;;;;;2.52;100.00;94674.47;5048942;28;20032;-76
2023/02/22 01:33:08;;;;;;;10.02;5.93;;;;;;;2.56;100.00;94675.81;5054097;28;20518;-75
2023/02/22 01:35:39;;;;;;;7.35;5.13;;;;;;;2.63;100.00;94671.81;5064137;28;20037;-75
2023/02/22 01:38:09;;;;;;;9.18;5.15;;;;;;;2.67;100.00;94671.41;5055367;28;20068;-75
2023/02/22 01:40:36;;;;;;;8.65;6.38;;;;;;;2.73;100.00;94666.72;5043658;28;20024;-75
2023/02/22 01:43:05;;;;;;;11.32;5.47;;;;;;;2.70;100.00;94667.00;5060972;28;20036;-75
2023/02/22 01:45:33;;;;;;;13.40;5.57;;;;;;;2.65;100.00;94668.19;5061378;28;20603;-76
2023/02/22 01:48:08;;;;;;;8.93;5.60;;;;;;;2.55;100.00;94669.91;5062058;28;20143;-75
2023/02/22 01:50:37;;;;;;;8.45;4.93;;;;;;;2.41;100.00;94675.34;5060034;28;20078;-75
2023/02/22 01:53:03;;;;;;;8.88;4.90;;;;;;;2.47;100.00;94668.94;5059966;28;20082;-75
2023/02/22 01:55:30;;;;;;;8.27;5.45;;;;;;;2.49;100.00;94667.06;5042904;28;20029;-75
2023/02/22 01:57:55;;;;;;;7.95;5.68;;;;;;;2.38;100.00;94670.50;5059983;28;20038;-75
2023/02/22 02:00:23;;;;;;;17.48;8.05;;;;;;;2.24;100.00;94675.97;5041102;28;20032;-75
2023/02/22 02:02:55;;;;;;;28.63;18.25;;;;;;;2.23;100.00;94676.91;5059536;28;20047;-75
2023/02/22 02:05:23;;;;;;;17.92;11.30;;;;;;;2.22;100.00;94671.91;5043873;28;20093;-75
2023/02/22 02:07:48;;;;;;;11.15;8.73;;;;;;;2.27;100.00;94669.78;5054509;28;20024;-77
2023/02/22 02:10:14;;;;;;;10.43;5.78;;;;;;;2.16;100.00;94669.84;5052842;28;20024;-75
2023/02/22 02:12:45;;;;;;;5.55;5.05;;;;;;;2.15;100.00;94675.91;5060475;28;20032;-75
2023/02/22 02:15:31;;;;;;;7.65;5.72;;;;;;;2.20;100.00;94677.16;5052806;28;20031;-75
2023/02/22 02:18:00;;;;;;;8.65;4.75;;;;;;;2.08;100.00;94670.50;5059582;28;20390;-75
2023/02/22 02:21:14;;;;;;;5.68;4.40;;;;;;;2.15;100.00;94679.28;5058355;28;20033;-75
2023/02/22 02:24:03;;;;;;;11.50;4.60;;;;;;;2.09;100.00;94683.13;5027137;28;20104;-75
2023/02/22 02:26:38;;;;;;;5.47;4.35;;;;;;;2.09;100.00;94687.44;5054262;28;20580;-76
2023/02/22 02:29:31;;;;;;;6.45;4.60;;;;;;;2.17;100.00;94687.63;5051819;28;20029;-75
2023/02/22 02:32:19;;;;;;;9.15;4.75;;;;;;;1.91;100.00;94694.06;5061106;28;20028;-77
2023/02/22 02:35:05;;;;;;;6.65;4.90;;;;;;;2.05;100.00;94693.75;5073762;28;20500;-77
2023/02/22 02:37:47;;;;;;;5.97;4.50;;;;;;;2.12;100.00;94687.16;5047525;28;20041;-78
2023/02/22 02:40:22;;;;;;;4.85;4.10;;;;;;;2.11;100.00;94688.94;5058013;28;20028;-75
2023/02/22 02:43:04;;;;;;;7.20;4.30;;;;;;;2.06;100.00;94680.03;5046057;28;20819;-76
2023/02/22 02:45:40;;;;;;;4.30;3.90;;;;;;;2.22;100.00;94684.66;5040594;28;20505;-76
2023/02/22 02:48:09;;;;;;;6.32;4.47;;;;;;;2.10;100.00;94692.44;5059073;28;20028;-76
2023/02/22 02:50:44;;;;;;;5.97;3.97;;;;;;;2.10;100.00;94686.50;5058672;28;20497;-77
2023/02/22 02:53:10;;;;;;;6.13;4.07;;;;;;;2.05;100.00;94683.53;5059678;28;20047;-77
2023/02/22 02:55:37;;;;;;;7.50;4.35;;;;;;;1.94;100.00;94686.94;5058848;28;20020;-76
2023/02/22 02:58:04;;;;;;;5.82;4.80;;;;;;;2.13;100.00;94691.34;5059278;28;20028;-77
2023/02/22 03:00:38;;;;;;;9.43;5.63;;;;;;;2.21;100.00;94683.88;5059242;28;20052;-76
2023/02/22 03:03:22;;;;;;;8.07;6.38;;;;;;;2.11;100.00;94691.50;5058868;28;20248;-77
2023/02/22 03:06:00;;;;;;;7.80;5.28;;;;;;;2.02;100.00;94683.78;5055887;28;20032;-76
2023/02/22 03:08:37;;;;;;;7.05;4.93;;;;;;;2.07;100.00;94691.88;5047335;28;20567;-77
2023/02/22 03:11:15;;;;;;;6.72;5.68;;;;;;;2.19;100.00;94693.41;5047233;28;20553;-77
2023/02/22 03:14:04;;;;;;;8.50;6.05;;;;;;;2.12;100.00;94692.28;5059113;28;20128;-77
2023/02/22 03:17:08;;;;;;;6.47;3.90;;;;;;;2.05;100.00;94698.84;5059287;28;20066;-77
2023/02/22 03:19:41;;;;;;;8.00;3.97;;;;;;;2.03;100.00;94698.97;4955462;28;20062;-76
2023/02/22 03:22:10;;;;;;;6.30;4.05;;;;;;;2.07;100.00;94705.44;5036878;28;20534;-77
2023/02/22 03:24:51;;;;;;;;;;;;;;;1.96;100.00;94705.50;5058967;28;20066;-77
2023/02/22 03:27:49;;;;;;;3.63;3.05;;;;;;;1.96;100.00;94708.06;5059331;28;19916;-77
2023/02/22 03:30:20;;;;;;;3.47;3.17;;;;;;;1.92;100.00;94701.59;5058377;28;20032;-77
2023/02/22 03:32:50;;;;;;;3.90;3.47;;;;;;;1.90;100.00;94707.75;5041813;28;20032;-77
2023/02/22 03:35:21;;;;;;;5.07;3.85;;;;;;;1.83;100.00;94699.78;5072609;28;20062;-77
2023/02/22 03:37:50;;;;;;;8.63;3.60;;;;;;;1.89;100.00;94704.41;5041797;28;20033;-77
2023/02/22 03:40:24;;;;;;;6.43;3.50;;;;;;;1.67;100.00;94704.50;5039349;28;20028;-77
2023/02/22 03:42:52;;;;;;;5.03;4.53;;;;;;;1.84;100.00;94711.59;5058026;28;20169;-74
2023/02/22 03:45:20;;;;;;;5.50;3.97;;;;;;;1.71;100.00;94705.06;5057974;28;20035;-76
2023/02/22 03:47:49;;;;;;;5.53;3.80;;;;;;;1.73;100.00;94721.06;5058527;28;20037;-77
2023/02/22 03:50:25;;;;;;;10.73;4.70;;;;;;;1.84;100.00;94705.69;5058137;28;20077;-77
2023/02/22 03:52:51;;;;;;;6.10;4.78;;;;;;;1.88;100.00;94707.06;5058934;28;20274;-77
2023/02/22 03:55:16;;;;;;;6.43;4.20;;;;;;;1.78;100.00;94714.66;5057398;28;20550;-77
2023/02/22 03:57:46;;;;;;;5.07;3.70;;;;;;;1.82;100.00;94715.22;5057970;28;20034;-76
2023/02/22 04:00:16;;;;;;;5.50;3.80;;;;;;;1.91;100.00;94717.84;5057317;28;20039;-78
2023/02/22 04:02:42;;;;;;;7.00;4.45;;;;;;;1.91;100.00;94705.06;5058167;28;20033;-77
2023/02/22 04:05:08;;;;;;;6.75;4.57;;;;;;;1.73;100.00;94675.94;5058133;28;20024;-76
2023/02/22 04:07:33;;;;;;;5.72;4.18;;;;;;;1.80;100.00;94701.78;5040546;28;20024;-77
2023/02/22 04:10:01;;;;;;;6.85;4.25;;;;;;;1.78;100.00;94696.78;5058732;28;20024;-77
2023/02/22 04:12:27;;;;;;;5.40;4.18;;;;;;;1.83;100.00;94702.31;5039685;28;20036;-77
2023/02/22 04:14:52;;;;;;;6.50;4.90;;;;;;;1.74;100.00;94707.34;5058668;28;20026;-77
2023/02/22 04:17:17;;;;;;;5.45;4.95;;;;;;;1.66;100.00;94712.28;5037653;28;20035;-77
2023/02/22 04:19:44;;;;;;;9.93;6.40;;;;;;;1.67;100.00;94711.38;5054149;28;20124;-77
2023/02/22 04:22:10;;;;;;;8.40;6.50;;;;;;;1.59;100.00;94712.78;5038010;28;20028;-77
2023/02/22 04:24:35;;;;;;;16.25;12.85;;;;;;;1.48;100.00;94715.38;5054825;28;20030;-76
2023/02/22 04:27:02;;;;;;;9.30;8.07;;;;;;;1.52;100.00;94713.38;5057931;28;20032;-76
2023/02/22 04:29:28;;;;;;;5.43;4.50;;;;;;;1.56;100.00;94718.13;5054925;28;20051;-76
2023/02/22 04:31:53;;;;;;;5.68;3.85;;;;;;;1.65;100.00;94705.56;5059687;28;20474;-77
2023/02/22 04:34:19;;;;;;;6.13;4.63;;;;;;;1.41;100.00;94710.88;5061339;28;20085;-77
2023/02/22 04:36:44;;;;;;;5.20;4.63;;;;;;;1.36;100.00;94716.34;5061411;28;20052;-77
2023/02/22 04:39:10;;;;;;;6.90;5.15;;;;;;;1.34;100.00;94723.31;5051683;28;20029;-77
2023/02/22 04:41:35;;;;;;;10.93;7.13;;;;;;;1.23;100.00;94720.78;5031808;28;20031;-76
2023/02/22 04:44:01;;;;;;;8.18;6.57;;;;;;;1.26;100.00;94732.47;5043052;28;20031;-77
2023/02/22 04:46:26;;;;;;;9.25;5.20;;;;;;;1.45;100.00;94725.81;5058951;28;20044;-77
2023/02/22 04:48:52;;;;;;;7.65;5.63;;;;;;;1.34;100.00;94727.59;5057342;28;20060;-78
2023/02/22 04:51:19;;;;;;;8.25;5.38;;;;;;;1.21;100.00;94717.56;5057209;28;20039;-77
2023/02/22 04:53:44;;;;;;;8.93;5.68;;;;;;;1.37;100.00;94712.06;5057801;28;20036;-77
2023/02/22 04:56:10;;;;;;;6.38;4.78;;;;;;;1.29;100.00;94722.03;5057192;28;20036;-77
2023/02/22 04:58:35;;;;;;;7.78;5.40;;;;;;;1.21;100.00;94709.91;5057402;28;20051;-78
2023/02/22 05:01:00;;;;;;;10.10;5.38;;;;;;;1.24;100.00;94721.59;5037619;28;20029;-78
2023/02/22 05:03:26;;;;;;;9.43;6.40;;;;;;;1.13;100.00;94714.78;5030090;28;20036;-78
2023/02/22 05:05:52;;;;;;;15.95;8.43;;;;;;;1.20;100.00;94720.22;5037726;28;21011;-78
2023/02/22 05:08:17;;;;;;;17.05;9.48;;;;;;;1.26;100.00;94730.75;5049465;28;20400;-78
2023/02/22 05:10:43;;;;;;;16.40;9.85;;;;;;;1.20;100.00;94718.47;5054853;28;20049;-77
2023/02/22 05:13:08;;;;;;;10.68;7.38;;;;;;;1.26;100.00;94723.09;5055813;28;20032;-77
2023/02/22 05:15:33;;;;;;;8.50;5.60;;;;;;;1.26;100.00;94718.00;5067527;28;20028;-78
2023/02/22 05:17:59;;;;;;;5.20;4.43;;;;;;;1.40;100.00;94735.59;5047530;28;20041;-77
2023/02/22 05:20:30;;;;;;;6.70;4.82;;;;;;;1.21;100.00;94717.56;5057850;28;20032;-78
2023/02/22 05:22:57;;;;;;;8.13;3.83;;;;;;;1.41;100.00;94729.53;5056510;28;20025;-78
2023/02/22 05:25:23;;;;;;;5.43;4.38;;;;;;;1.46;100.00;94727.44;5056781;28;20033;-76
2023/02/22 05:27:57;;;;;;;13.07;6.25;;;;;;;1.52;100.00;94726.13;5049070;28;20033;-77
2023/02/22 05:30:26;;;;;;;4.85;4.38;;;;;;;1.54;100.00;94735.28;5036474;28;20025;-77
2023/02/22 05:32:51;;;;;;;5.75;4.97;;;;;;;1.46;100.00;94724.88;5053347;28;20122;-77
2023/02/22 05:35:18;;;;;;;6.13;5.53;;;;;;;1.51;100.00;94730.44;5050774;28;20076;-77
2023/02/22 05:37:43;;;;;;;7.63;5.00;;;;;;;1.59;100.00;94729.81;5044224;28;20579;-77
2023/02/22 05:40:10;;;;;;;5.80;4.78;;;;;;;1.69;100.00;94722.25;5035758;28;20032;-77
2023/02/22 05:42:35;;;;;;;4.72;3.85;;;;;;;1.88;100.00;94742.81;5056589;28;20448;-77
2023/02/22 05:45:00;;;;;;;6.70;5.78;;;;;;;2.11;100.00;94742.56;5058001;28;20093;-77
2023/02/22 05:47:26;;;;;;;5.53;4.10;;;;;;;2.41;100.00;94734.09;5057085;28;20028;-77
2023/02/22 05:49:51;;;;;;;4.68;4.15;;;;;;;4.96;96.30;94730.25;5059798;28;20063;-77
2023/02/22 05:52:17;;;;;;;4.55;2.90;;;;;;;6.96;82.54;94733.06;5056435;28;20048;-79
2023/02/22 05:54:42;;;;;;;3.95;3.55;;;;;;;7.78;73.31;94736.53;5056519;28;20480;-79
2023/02/22 05:57:08;;;;;;;9.57;7.03;;;;;;;8.87;62.54;94742.13;5055243;28;20569;-77
2023/02/22 05:59:33;;;;;;;6.28;5.45;;;;;;;9.88;56.23;94738.63;5047750;28;20099;-77
2023/02/22 06:01:59;;;;;;;4.60;4.10;;;;;;;9.53;56.37;94746.91;5062989;28;20025;-81
2023/02/22 06:04:24;;;;;;;4.43;3.78;;;;;;;9.50;56.78;94749.81;5055151;28;20071;-81
2023/02/22 06:06:50;;;;;;;3.72;3.25;;;;;;;10.22;54.10;94746.00;5055466;28;20823;-80
2023/02/22 06:09:15;;;;;;;3.90;3.60;;;;;;;10.25;53.71;94739.66;5047338;28;20040;-79
2023/02/22 06:11:40;;;;;;;4.80;3.75;;;;;;;11.80;50.02;94741.25;5053084;28;20094;-77
2023/02/22 06:14:07;;;;;;;4.00;3.60;;;;;;;13.42;45.61;94738.56;5053909;28;20097;-78
2023/02/22 06:16:32;;;;;;;4.25;3.85;;;;;;;14.63;42.03;94738.47;5054775;28;20083;-80
2023/02/22 06:18:59;;;;;;;4.40;3.78;;;;;;;13.59;43.68;94740.63;5046670;28;20521;-84
2023/02/22 06:21:26;;;;;;;4.30;3.90;;;;;;;11.54;48.86;94743.53;5050681;28;20115;-80
2023/02/22 06:23:52;;;;;;;4.55;4.00;;;;;;;12.06;48.57;94738.94;5051794;28;20033;-78
2023/02/22 06:26:18;;;;;;;16.77;4.60;;;;;;;13.60;45.43;94736.22;5055364;28;20025;-80
2023/02/22 06:28:44;;;;;;;5.65;4.00;;;;;;;13.85;44.17;94739.91;5059129;28;20021;-78
2023/02/22 06:31:10;;;;;;;4.28;3.90;;;;;;;12.89;45.78;94738.22;5054053;28;20032;-80
2023/02/22 06:33:35;;;;;;;17.23;4.30;;;;;;;13.62;44.15;94729.00;5063301;28;20016;-79
2023/02/22 06:36:01;;;;;;;15.40;4.47;;;;;;;12.21;47.85;94731.06;5069373;28;20482;-79
2023/02/22 06:38:26;;;;;;;6.95;4.97;;;;;;;13.99;43.65;94731.16;5057735;28;20049;-79
2023/02/22 06:40:54;;;;;;;4.45;4.05;;;;;;;14.12;44.12;94744.19;5056287;28;20094;-81
2023/02/22 06:43:20;;;;;;;5.25;4.47;;;;;;;13.09;46.35;94741.78;5057966;28;20478;-81
2023/02/22 06:45:46;;;;;;;7.35;6.57;;;;;;;16.31;40.74;94745.19;5070207;28;20028;-81
2023/02/22 06:48:11;;;;;;;11.07;9.70;;;;;;;17.48;38.47;94748.84;5065903;28;20029;-80
2023/02/22 06:50:37;;;;;;;8.85;8.05;;;;;;;16.28;40.15;94743.00;5059137;28;20031;-79
2023/02/22 06:53:02;;;;;;;9.13;6.82;;;;;;;17.29;38.58;94743.63;5076632;28;20027;-81
2023/02/22 06:55:30;;;;;;;5.65;4.97;;;;;;;17.03;40.85;94740.44;5023076;28;20029;-84
2023/02/22 06:57:56;;;;;;;8.02;5.55;;;;;;;20.04;34.67;94742.25;5042472;28;20410;-84
2023/02/22 07:00:23;;;;;;;5.53;4.90;;;;;;;20.90;31.85;94749.88;5036619;28;20032;-85
2023/02/22 07:02:51;;;;;;;4.53;4.10;;;;;;;21.89;31.08;94753.44;5054279;28;20259;-84
2023/02/22 07:05:18;;;;;;;6.57;4.43;;;;;;;20.59;32.49;94745.13;5027735;28;20029;-86
2023/02/22 07:07:44;;;;;;;5.40;4.82;;;;;;;22.04;30.83;94743.06;5041629;28;20556;-83
2023/02/22 07:10:22;;;;;;;5.18;4.68;;;;;;;20.57;32.45;94741.94;5045332;28;20117;-85
2023/02/22 07:12:48;;;;;;;5.32;4.82;;;;;;;21.47;31.20;94737.31;5063161;28;20051;-83
2023/02/22 07:15:16;;;;;;;5.80;4.72;;;;;;;23.55;27.92;94739.16;5048147;28;20044;-85
2023/02/22 07:17:42;;;;;;;6.22;4.90;;;;;;;23.93;27.11;94737.19;5053775;28;20127;-83
2023/02/22 07:20:10;;;;;;;5.72;5.22;;;;;;;24.32;25.95;94735.78;5063280;28;20111;-85
2023/02/22 07:22:38;;;;;;;5.53;5.00;;;;;;;24.73;26.52;94719.94;5061768;28;20027;-83
2023/02/22 07:25:05;;;;;;;;;;;;;;;25.04;25.92;94732.19;5053042;28;20041;-84
2023/02/22 07:27:30;;;;;;;5.20;4.35;;;;;;;24.95;25.87;94729.25;5046752;28;19922;-83
2023/02/22 07:29:56;;;;;;;5.07;4.57;;;;;;;25.16;25.63;94714.94;5044750;28;20016;-83
2023/02/22 07:32:21;;;;;;;5.88;5.38;;;;;;;26.00;25.35;94732.78;5066081;28;20028;-83
2023/02/22 07:34:47;;;;;;;4.95;4.32;;;;;;;25.63;25.30;94730.53;5039974;28;20108;-83
2023/02/22 07:37:12;;;;;;;6.45;4.03;;;;;;;26.13;24.20;94731.41;5052194;28;20597;-86
2023/02/22 07:39:40;;;;;;;4.25;3.92;;;;;;;25.82;25.02;94728.06;5049834;28;20461;-83
2023/02/22 07:42:06;;;;;;;4.47;3.83;;;;;;;25.73;24.29;94726.25;5072283;28;20028;-84
2023/02/22 07:44:31;;;;;;;9.13;4.55;;;;;;;25.67;25.17;94725.47;5061434;28;20540;-84
2023/02/22 07:46:57;;;;;;;4.40;4.07;;;;;;;26.36;24.23;94728.13;5052744;28;20121;-85
2023/02/22 07:49:22;;;;;;;6.85;4.18;;;;;;;23.77;25.81;94715.16;5026864;28;20039;-85
2023/02/22 07:51:48;;;;;;;4.47;4.07;;;;;;;25.05;25.29;94728.44;5030939;28;20040;-86
2023/02/22 07:54:13;;;;;;;4.53;4.13;;;;;;;24.76;26.33;94724.69;5055683;28;20045;-84
2023/02/22 07:56:46;;;;;;;4.60;4.18;;;;;;;25.98;25.01;94726.94;5043224;28;20513;-85
2023/02/22 07:59:11;;;;;;;5.20;4.55;;;;;;;25.22;25.25;94723.69;5048045;28;20044;-86
2023/02/22 08:01:37;;;;;;;7.40;4.97;;;;;;;25.36;25.53;94722.06;5054655;28;20040;-83
2023/02/22 08:04:02;;;;;;;5.10;4.60;;;;;;;25.54;25.42;94716.22;5051869;28;20025;-81
2023/02/22 08:06:28;;;;;;;7.43;4.88;;;;;;;25.08;26.07;94712.81;5056061;28;20111;-82
2023/02/22 08:08:54;;;;;;;5.10;4.55;;;;;;;21.74;30.41;94724.19;5057613;28;20599;-85
2023/02/22 08:11:19;;;;;;;4.93;4.50;;;;;;;18.44;34.48;94723.44;5054561;28;20036;-84
2023/02/22 08:13:45;;;;;;;6.30;4.55;;;;;;;18.24;35.54;94717.69;5045818;28;20039;-82
2023/02/22 08:16:10;;;;;;;6.80;6.03;;;;;;;18.06;36.50;94715.13;5046271;28;20452;-83
2023/02/22 08:18:37;;;;;;;6.13;4.47;;;;;;;18.41;35.84;94722.06;5037207;28;20029;-81
2023/02/22 08:21:03;;;;;;;6.72;4.03;;;;;;;18.37;35.41;94713.06;5043764;28;20102;-80
2023/02/22 08:23:28;;;;;;;5.55;3.60;;;;;;;21.08;32.69;94717.22;5055835;28;20028;-80
2023/02/22 08:25:54;;;;;;;4.30;3.95;;;;;;;25.44;26.84;94705.59;5056859;28;20510;-80
2023/02/22 08:28:22;;;;;;;4.32;3.92;;;;;;;25.58;26.34;94717.28;5036733;28;20032;-85
2023/02/22 08:30:47;;;;;;;4.88;4.03;;;;;;;26.44;25.85;94718.78;5052316;28;20024;-87
2023/02/22 08:33:18;;;;;;;5.05;3.80;;;;;;;25.99;25.79;94719.78;5047367;28;20515;-85
2023/02/22 08:35:44;;;;;;;4.15;3.75;;;;;;;26.37;26.20;94718.28;5052330;28;20534;-86
2023/02/22 08:38:30;;;;;;;4.10;3.75;;;;;;;26.59;26.19;94718.69;5036277;28;20035;-88
2023/02/22 08:40:55;;;;;;;6.05;3.70;;;;;;;26.83;25.60;94714.28;5064842;28;20040;-86
2023/02/22 08:43:22;;;;;;;4.55;4.10;;;;;;;25.32;26.91;94712.25;5042804;28;20044;-86
2023/02/22 08:45:48;;;;;;;4.97;4.57;;;;;;;25.89;25.99;94715.31;5041461;28;20051;-86
2023/02/22 08:48:14;;;;;;;4.45;4.05;;;;;;;27.06;25.52;94710.13;5048901;28;20048;-86
2023/02/22 08:50:40;;;;;;;4.82;4.32;;;;;;;26.90;25.65;94706.81;5027325;28;20028;-87
2023/02/22 08:53:07;;;;;;;4.60;3.92;;;;;;;26.00;26.99;94705.44;5048366;28;20033;-88
2023/02/22 08:55:34;;;;;;;6.78;4.60;;;;;;;26.25;26.09;94710.66;5057915;28;20036;-86
2023/02/22 08:58:01;;;;;;;4.68;4.28;;;;;;;24.40;27.04;94702.69;5040059;28;20032;-86
2023/02/22 09:00:31;;;;;;;5.07;4.30;;;;;;;25.24;27.84;94699.56;5046961;28;20025;-87
2023/02/22 09:02:58;;;;;;;6.32;4.55;;;;;;;24.98;27.59;94706.75;5041234;28;20102;-86
2023/02/22 09:05:23;;;;;;;4.95;4.53;;;;;;;25.05;28.12;94702.75;5056320;28;20082;-86
2023/02/22 09:07:49;;;;;;;5.68;4.85;;;;;;;23.99;29.10;94701.75;5057303;28;20099;-85
2023/02/22 09:10:16;;;;;;;5.28;4.75;;;;;;;24.27;29.44;94698.72;5038258;28;20077;-86
2023/02/22 09:12:41;;;;;;;8.07;5.60;;;;;;;25.61;27.51;94695.50;5049895;28;20029;-86
2023/02/22 09:15:08;;;;;;;5.63;5.13;;;;;;;26.42;26.13;94697.81;5023695;28;20291;-86
2023/02/22 09:17:36;;;;;;;6.13;5.60;;;;;;;25.03;28.17;94688.97;5031491;28;20095;-86
2023/02/22 09:20:03;;;;;;;7.72;5.68;;;;;;;25.47;28.58;94697.09;5054258;28;20024;-87
2023/02/22 09:22:28;;;;;;;6.50;5.85;;;;;;;25.55;27.86;94688.63;5043747;28;20048;-87
2023/02/22 09:24:53;;;;;;;6.55;5.70;;;;;;;25.27;27.91;94693.72;5050028;28;20032;-87
2023/02/22 09:27:19;;;;;;;5.85;5.30;;;;;;;25.54;27.57;94694.19;5055565;28;20485;-86
2023/02/22 09:29:47;;;;;;;5.95;5.35;;;;;;;25.41;27.68;94690.22;5058662;28;20505;-86
2023/02/22 09:32:12;;;;;;;;;;;;;;;25.57;27.38;94691.81;5064436;28;20949;-85
2023/02/22 09:34:44;;;;;;;6.82;6.22;;;;;;;25.94;27.23;94686.09;5052085;28;19995;-86
2023/02/22 09:37:10;;;;;;;8.23;6.32;;;;;;;25.32;27.74;94685.72;5054604;28;20071;-85
2023/02/22 09:39:36;;;;;;;6.88;6.22;;;;;;;24.10;28.82;94685.66;5051888;28;20044;-88
2023/02/22 09:42:10;;;;;;;7.85;6.75;;;;;;;25.10;28.72;94681.53;5051581;28;20557;-87
2023/02/22 09:45:01;;;;;;;7.75;6.53;;;;;;;24.60;28.99;94681.50;5045058;28;20033;-84
2023/02/22 09:47:37;;;;;;;7.55;6.85;;;;;;;25.18;29.10;94670.38;5065794;28;20024;-85
2023/02/22 09:50:14;;;;;;;7.82;6.35;;;;;;;24.03;29.55;94676.38;5028182;28;20037;-84
2023/02/22 09:52:42;;;;;;;10.48;8.85;;;;;;;24.39;30.23;94671.97;5056532;28;20038;-84
2023/02/22 09:55:27;;;;;;;9.57;8.75;;;;;;;23.38;30.39;94669.72;5056220;28;20623;-84
2023/02/22 09:57:55;;;;;;;10.98;9.88;;;;;;;24.03;31.11;94663.13;5039107;28;20033;-83
2023/02/22 10:00:21;;;;;;;;;;;;;;;25.01;29.33;94666.44;5048342;28;20040;-82
2023/02/22 10:03:15;;;;;;;10.95;9.50;;;;;;;24.62;29.94;94658.22;5058105;28;19927;-86
2023/02/22 10:05:43;;;;;;;9.75;8.70;;;;;;;24.58;30.11;94657.16;5061165;28;20088;-84
2023/02/22 10:08:12;;;;;;;;;;;;;;;24.21;30.33;94659.25;5061544;28;20453;-83
2023/02/22 10:10:41;;;;;;;7.85;7.05;;;;;;;24.55;29.56;94647.88;5060388;28;19916;-85
2023/02/22 10:13:31;;;;;;;7.82;7.00;;;;;;;25.04;29.21;94647.34;5058887;28;20043;-84
2023/02/22 10:16:04;;;;;;;6.75;6.15;;;;;;;25.15;29.66;94651.56;5062121;28;20035;-85
2023/02/22 10:18:43;;;;;;;5.97;4.95;;;;;;;25.40;28.01;94643.53;5058844;28;20033;-85
2023/02/22 10:21:17;;;;;;;5.75;5.15;;;;;;;24.76;28.24;94638.06;5057833;28;20123;-89
2023/02/22 10:24:06;;;;;;;8.40;5.00;;;;;;;25.99;26.74;94630.31;5077739;28;20037;-86
2023/02/22 10:26:35;;;;;;;6.82;5.68;;;;;;;25.29;27.77;94626.06;5056488;28;20071;-85
2023/02/22 10:29:13;;;;;;;13.40;5.65;;;;;;;21.71;31.93;94619.22;5051284;28;20024;-87
2023/02/22 10:31:43;;;;;;;5.73;5.23;;;;;;;20.33;33.62;94618.41;5040030;28;20051;-85
2023/02/22 10:34:23;;;;;;;7.20;5.90;;;;;;;20.20;34.65;94600.28;5060418;28;20036;-84
2023/02/22 10:36:53;;;;;;;8.75;5.40;;;;;;;20.72;34.50;94605.31;5065848;28;20450;-88
2023/02/22 10:39:31;;;;;;;8.80;6.20;;;;;;;20.50;34.98;94595.53;5054486;28;20378;-85
2023/02/22 10:42:04;;;;;;;6.93;5.70;;;;;;;20.52;34.58;94593.44;5058775;28;20115;-85
2023/02/22 10:44:34;;;;;;;6.72;4.90;;;;;;;20.77;34.25;94594.88;5042968;28;20034;-88
2023/02/22 10:47:02;;;;;;;6.15;4.80;;;;;;;20.48;33.59;94586.28;5041140;28;20059;-87
2023/02/22 10:49:37;;;;;;;4.70;4.20;;;;;;;20.20;33.62;94581.06;5043259;28;20115;-86
2023/02/22 10:52:05;;;;;;;5.10;4.60;;;;;;;19.89;34.11;94558.75;5075232;28;20098;-87
2023/02/22 10:54:33;;;;;;;7.05;4.88;;;;;;;20.04;34.03;94559.00;5057784;28;20021;-92
2023/02/22 10:56:59;;;;;;;6.20;4.05;;;;;;;19.58;34.29;94570.56;5059552;28;20028;-86
2023/02/22 10:59:36;;;;;;;4.80;3.85;;;;;;;19.97;33.99;94561.78;5039333;28;20149;-86
2023/02/22 11:02:15;;;;;;;3.60;3.28;;;;;;;19.75;31.61;94557.44;5047816;28;20036;-85
2023/02/22 11:05:01;;;;;;;4.95;3.85;;;;;;;19.76;33.46;94567.72;5068925;28;20032;-85
2023/02/22 11:07:34;;;;;;;5.63;3.20;;;;;;;19.46;32.95;94559.28;5048796;28;20037;-78
2023/02/22 11:10:06;;;;;;;4.75;2.90;;;;;;;18.65;33.18;94543.75;5023256;28;20528;-78
2023/02/22 11:12:36;;;;;;;3.90;2.90;;;;;;;19.51;33.22;94546.25;5045918;28;20107;-77
2023/02/22 11:15:22;;;;;;;5.93;3.55;;;;;;;18.90;34.53;94550.31;5038511;28;20426;-77
2023/02/22 11:17:49;;;;;;;8.18;4.85;;;;;;;19.43;34.65;94544.81;5047826;28;20044;-77
2023/02/22 11:20:24;;;;;;;48.65;6.45;;;;;;;19.36;34.00;94544.09;5036431;28;20036;-79
2023/02/22 11:22:58;;;;;;;7.90;5.30;;;;;;;19.23;34.72;94541.75;5053340;28;20028;-79
2023/02/22 11:25:31;;;;;;;7.10;4.97;;;;;;;19.43;34.47;94538.75;5047810;28;20447;-79
2023/02/22 11:28:19;;;;;;;11.20;5.53;;;;;;;19.32;35.33;94529.06;5040366;28;20040;-83
2023/02/22 11:30:48;;;;;;;6.72;5.10;;;;;;;18.71;35.72;94524.47;5056896;28;20033;-81
2023/02/22 11:33:25;;;;;;;9.40;5.60;;;;;;;19.10;34.74;94522.88;5053899;28;20033;-80
2023/02/22 11:36:03;;;;;;;7.32;5.32;;;;;;;19.09;35.03;94524.69;5055190;28;20037;-81
2023/02/22 11:38:35;;;;;;;6.72;4.97;;;;;;;19.10;34.77;94517.63;5037818;28;20093;-81
2023/02/22 11:41:21;;;;;;;7.28;5.13;;;;;;;19.10;34.99;94521.06;5038705;28;20036;-83
2023/02/22 11:43:49;;;;;;;5.70;5.13;;;;;;;18.98;35.69;94508.97;5053918;28;20059;-78